createdAt,value
2018-06-18T17:22:06.359Z,2.90
2018-06-18T17:24:34.488Z,3.13
2018-06-18T17:27:02.633Z,3.47
2018-06-18T17:29:30.791Z,3.10
2018-06-18T17:31:58.939Z,3.20
2018-06-18T17:34:27.054Z,2.83
2018-06-18T17:36:55.192Z,3.70
2018-06-18T17:39:23.343Z,3.27
2018-06-18T17:41:51.461Z,3.13
2018-06-18T17:44:19.581Z,3.17
2018-06-18T17:46:47.733Z,3.70
2018-06-18T17:49:15.866Z,3.73
2018-06-18T17:51:44.012Z,4.00
2018-06-18T17:54:12.151Z,3.57
2018-06-18T17:56:40.274Z,3.50
2018-06-18T17:59:08.401Z,2.57
2018-06-18T18:01:36.523Z,3.33
2018-06-18T18:04:04.845Z,2.90
2018-06-18T18:06:32.987Z,3.60
2018-06-18T18:09:01.122Z,3.43
2018-06-18T18:11:29.240Z,3.60
2018-06-18T18:13:57.369Z,4.30
2018-06-18T18:16:25.486Z,3.60
2018-06-18T18:18:53.622Z,4.30
2018-06-18T18:21:21.776Z,3.97
2018-06-18T18:23:49.911Z,3.57
2018-06-18T18:26:18.057Z,3.70
2018-06-18T18:28:46.210Z,3.60
2018-06-18T18:31:14.338Z,4.00
2018-06-18T18:33:42.484Z,3.27
2018-06-18T18:36:10.618Z,3.83
2018-06-18T18:38:38.745Z,3.23
2018-06-18T18:41:06.870Z,3.50
2018-06-18T18:43:35.006Z,3.63
2018-06-18T18:46:03.143Z,3.30
2018-06-18T18:48:31.292Z,3.10
2018-06-18T18:50:59.405Z,3.50
2018-06-18T18:53:27.533Z,3.40
2018-06-18T18:56:07.824Z,3.50
2018-06-18T18:59:42.768Z,4.10
2018-06-18T19:02:10.919Z,3.50
2018-06-18T19:04:56.968Z,3.80
2018-06-18T19:07:28.975Z,3.57
2018-06-18T19:10:03.613Z,3.87
2018-06-18T19:12:31.766Z,3.70
2018-06-18T19:14:59.927Z,4.20
2018-06-18T19:17:28.085Z,3.83
2018-06-18T19:20:01.200Z,3.80
2018-06-18T19:22:29.353Z,4.00
2018-06-18T19:24:57.480Z,3.90
2018-06-18T19:27:25.612Z,4.30
2018-06-18T19:29:53.764Z,3.60
2018-06-18T19:32:21.942Z,4.13
2018-06-18T19:34:50.071Z,4.60
2018-06-18T19:37:18.215Z,4.33
2018-06-18T19:39:47.210Z,4.50
2018-06-18T19:42:15.458Z,4.20
2018-06-18T19:44:44.236Z,5.00
2018-06-18T19:48:17.035Z,3.80
2018-06-18T19:50:45.227Z,4.63
2018-06-18T19:53:13.346Z,4.30
2018-06-18T19:55:41.515Z,4.43
2018-06-18T19:58:09.652Z,4.30
2018-06-18T20:00:45.206Z,4.27
2018-06-18T20:03:13.424Z,4.67
2018-06-18T20:05:41.543Z,4.47
2018-06-18T20:08:11.744Z,4.20
2018-06-18T20:10:40.257Z,4.90
2018-06-18T20:13:08.410Z,4.87
2018-06-18T20:15:36.550Z,4.40
2018-06-18T20:18:04.793Z,4.87
2018-06-18T20:20:32.935Z,4.70
2018-06-18T20:23:01.366Z,4.83
2018-06-18T20:25:30.833Z,4.80
2018-06-18T20:27:59.290Z,5.00
2018-06-18T20:30:27.452Z,5.27
2018-06-18T20:32:55.645Z,5.40
2018-06-18T20:35:41.155Z,4.83
2018-06-18T20:38:09.266Z,4.83
2018-06-18T20:40:37.416Z,5.47
2018-06-18T20:43:06.244Z,5.10
2018-06-18T20:45:34.377Z,5.20
2018-06-18T20:48:02.279Z,5.33
2018-06-18T20:50:30.478Z,5.40
2018-06-18T20:52:58.676Z,5.60
2018-06-18T20:55:27.004Z,5.37
2018-06-18T20:57:55.166Z,5.07
2018-06-18T21:00:23.301Z,5.03
2018-06-18T21:02:51.445Z,5.47
2018-06-18T21:05:19.611Z,5.53
2018-06-18T21:07:47.792Z,5.53
2018-06-18T21:10:15.847Z,5.70
2018-06-18T21:12:44.010Z,5.07
2018-06-18T21:15:12.129Z,5.80
2018-06-18T21:17:40.275Z,5.03
2018-06-18T21:20:08.388Z,5.20
2018-06-18T21:22:36.532Z,5.40
2018-06-18T21:25:04.881Z,5.70
2018-06-18T21:27:33.028Z,6.03
2018-06-18T21:30:01.151Z,5.73
2018-06-18T21:32:29.300Z,5.80
2018-06-18T21:34:58.082Z,5.53
2018-06-18T21:37:26.205Z,5.80
2018-06-18T21:39:54.335Z,6.00
2018-06-18T21:42:22.482Z,5.70
2018-06-18T21:44:57.541Z,5.43
2018-06-18T21:47:25.667Z,5.60
2018-06-18T21:49:53.831Z,6.13
2018-06-18T21:52:22.077Z,6.10
2018-06-18T21:54:50.224Z,5.53
2018-06-18T21:57:18.363Z,5.33
2018-06-18T21:59:46.497Z,5.20
2018-06-18T22:02:14.640Z,5.00
2018-06-18T22:04:42.753Z,6.20
2018-06-18T22:07:10.937Z,6.40
2018-06-18T22:09:39.086Z,5.67
2018-06-18T22:12:07.240Z,5.90
2018-06-18T22:14:35.351Z,5.40
2018-06-18T22:17:03.502Z,6.27
2018-06-18T22:19:31.666Z,5.60
2018-06-18T22:21:59.808Z,6.97
2018-06-18T22:24:27.953Z,5.80
2018-06-18T22:26:56.094Z,5.60
2018-06-18T22:29:24.246Z,5.90
2018-06-18T22:31:52.406Z,6.10
2018-06-18T22:34:20.606Z,6.23
2018-06-18T22:36:48.699Z,5.77
2018-06-18T22:39:16.865Z,5.77
2018-06-18T22:41:45.001Z,6.23
2018-06-18T22:44:13.153Z,5.80
2018-06-18T22:46:41.305Z,5.17
2018-06-18T22:49:09.220Z,5.77
2018-06-18T22:51:37.387Z,6.47
2018-06-18T22:54:05.601Z,5.23
2018-06-18T22:56:33.666Z,5.93
2018-06-18T22:59:01.822Z,5.93
2018-06-18T23:01:29.979Z,5.70
2018-06-18T23:03:58.151Z,6.70
2018-06-18T23:06:26.326Z,6.27
2018-06-18T23:08:54.506Z,6.00
2018-06-18T23:11:22.652Z,6.20
2018-06-18T23:13:50.830Z,5.77
2018-06-18T23:16:18.993Z,6.43
2018-06-18T23:18:47.139Z,5.90
2018-06-18T23:21:15.269Z,6.10
2018-06-18T23:23:43.426Z,6.70
2018-06-18T23:26:11.561Z,6.30
2018-06-18T23:28:47.695Z,6.87
2018-06-18T23:31:15.863Z,6.50
2018-06-18T23:33:43.973Z,6.13
2018-06-18T23:36:12.115Z,6.20
2018-06-18T23:38:40.241Z,6.60
2018-06-18T23:41:08.404Z,6.73
2018-06-18T23:43:36.581Z,6.63
2018-06-18T23:46:04.969Z,5.73
2018-06-18T23:48:33.115Z,6.87
2018-06-18T23:51:01.257Z,7.60
2018-06-18T23:53:29.402Z,6.27
2018-06-18T23:55:57.554Z,6.50
2018-06-18T23:58:25.694Z,6.33
